createdAt,value
2022-08-29T00:00:17.758Z,19.64
2022-08-29T00:02:49.915Z,19.59
2022-08-29T00:05:20.034Z,19.59
2022-08-29T00:07:51.439Z,19.62
2022-08-29T00:10:18.100Z,19.55
2022-08-29T00:12:44.561Z,19.55
2022-08-29T00:15:12.609Z,19.63
2022-08-29T00:17:39.168Z,19.54
2022-08-29T00:20:08.471Z,19.63
2022-08-29T00:22:35.071Z,19.39
2022-08-29T00:25:04.730Z,19.65
2022-08-29T00:27:32.949Z,19.67
2022-08-29T00:30:00.073Z,19.56
2022-08-29T00:32:26.955Z,19.49
2022-08-29T00:34:53.649Z,19.64
2022-08-29T00:37:20.157Z,19.65
2022-08-29T00:39:46.877Z,19.58
2022-08-29T00:42:13.319Z,19.67
2022-08-29T00:44:39.851Z,19.49
2022-08-29T00:47:12.093Z,19.69
2022-08-29T00:49:46.169Z,19.63
2022-08-29T00:52:28.322Z,19.73
2022-08-29T00:54:56.545Z,19.55
2022-08-29T00:57:25.467Z,19.52
2022-08-29T00:59:52.888Z,19.75
2022-08-29T01:02:20.009Z,19.78
2022-08-29T01:04:46.959Z,19.79
2022-08-29T01:07:13.759Z,19.79
2022-08-29T01:09:43.315Z,19.81
2022-08-29T01:12:16.843Z,19.83
2022-08-29T01:14:50.238Z,19.57
2022-08-29T01:17:26.642Z,19.88
2022-08-29T01:19:58.282Z,19.88
2022-08-29T01:22:51.732Z,19.92
2022-08-29T01:25:22.867Z,19.90
2022-08-29T01:27:59.399Z,19.90
2022-08-29T01:30:25.922Z,19.85
2022-08-29T01:32:52.652Z,19.91
2022-08-29T01:35:19.164Z,19.85
2022-08-29T01:37:45.616Z,19.86
2022-08-29T01:40:13.497Z,19.89
2022-08-29T01:42:40.113Z,19.75
2022-08-29T01:45:10.008Z,19.90
2022-08-29T01:47:38.749Z,20.08
2022-08-29T01:50:15.001Z,19.79
2022-08-29T01:52:42.704Z,19.84
2022-08-29T01:55:09.392Z,19.84
2022-08-29T01:57:38.826Z,19.83
2022-08-29T02:00:08.343Z,19.80
2022-08-29T02:02:34.922Z,19.86
2022-08-29T02:05:02.699Z,19.79
2022-08-29T02:07:29.491Z,19.62
2022-08-29T02:09:56.199Z,19.74
2022-08-29T02:12:22.875Z,19.74
2022-08-29T02:14:50.730Z,19.72
2022-08-29T02:17:18.003Z,19.70
2022-08-29T02:19:44.470Z,19.75
2022-08-29T02:22:11.396Z,19.74
2022-08-29T02:24:38.083Z,19.75
2022-08-29T02:27:04.893Z,19.77
2022-08-29T02:29:37.696Z,19.77
2022-08-29T02:32:09.489Z,19.76
2022-08-29T02:34:36.970Z,19.75
2022-08-29T02:37:05.165Z,19.77
2022-08-29T02:39:32.519Z,19.75
2022-08-29T02:41:59.352Z,19.61
2022-08-29T02:44:25.844Z,19.71
2022-08-29T02:46:52.593Z,19.70
2022-08-29T02:49:19.082Z,19.67
2022-08-29T02:51:45.650Z,19.67
2022-08-29T02:54:12.703Z,19.67
2022-08-29T02:56:39.926Z,19.54
2022-08-29T02:59:08.323Z,19.60
2022-08-29T03:01:36.378Z,19.67
2022-08-29T03:04:03.406Z,19.58
2022-08-29T03:06:29.845Z,19.62
2022-08-29T03:08:56.359Z,19.55
2022-08-29T03:11:23.983Z,19.33
2022-08-29T03:13:50.523Z,19.21
2022-08-29T03:16:18.373Z,19.36
2022-08-29T03:18:44.906Z,19.27
2022-08-29T03:21:23.526Z,19.21
2022-08-29T03:23:51.515Z,18.94
2022-08-29T03:26:19.668Z,19.00
2022-08-29T03:28:46.973Z,18.87
2022-08-29T03:31:13.425Z,18.71
2022-08-29T03:33:40.065Z,18.64
2022-08-29T03:36:14.090Z,18.58
2022-08-29T03:38:46.341Z,18.50
2022-08-29T03:41:20.724Z,18.25
2022-08-29T03:43:47.133Z,18.21
2022-08-29T03:46:13.668Z,18.20
2022-08-29T03:48:40.214Z,18.27
2022-08-29T03:51:06.942Z,18.23
2022-08-29T03:53:33.586Z,18.18
2022-08-29T03:56:00.406Z,18.14
2022-08-29T03:58:26.845Z,18.16
2022-08-29T04:00:53.336Z,18.11
2022-08-29T04:03:20.351Z,18.08
2022-08-29T04:05:51.483Z,18.01
2022-08-29T04:08:21.849Z,18.11
2022-08-29T04:10:48.336Z,18.02
2022-08-29T04:13:14.792Z,18.16
2022-08-29T04:15:42.519Z,18.19
2022-08-29T04:18:11.205Z,18.24
2022-08-29T04:20:41.550Z,18.31
2022-08-29T04:23:08.700Z,18.33
2022-08-29T04:25:37.979Z,18.41
2022-08-29T04:28:12.493Z,18.49
2022-08-29T04:30:39.942Z,18.47
2022-08-29T04:33:06.973Z,18.58
2022-08-29T04:35:34.912Z,18.62
2022-08-29T04:38:01.305Z,18.62
2022-08-29T04:40:27.750Z,18.46
2022-08-29T04:42:54.194Z,18.69
2022-08-29T04:45:22.475Z,18.74
2022-08-29T04:47:49.034Z,18.59
2022-08-29T04:50:18.878Z,18.79
2022-08-29T04:52:45.558Z,18.64
2022-08-29T04:55:13.176Z,18.81
2022-08-29T04:57:40.228Z,18.79
2022-08-29T05:00:13.795Z,18.82
2022-08-29T05:02:41.812Z,18.84
2022-08-29T05:05:10.675Z,18.82
2022-08-29T05:07:38.410Z,18.69
2022-08-29T05:10:09.907Z,18.89
2022-08-29T05:12:37.604Z,18.91
2022-08-29T05:15:06.520Z,18.89
2022-08-29T05:17:33.613Z,18.77
2022-08-29T05:20:01.027Z,18.84
2022-08-29T05:22:27.490Z,18.77
2022-08-29T05:24:53.962Z,18.82
2022-08-29T05:27:22.306Z,18.79
2022-08-29T05:29:51.456Z,18.73
2022-08-29T05:32:21.434Z,18.71
2022-08-29T05:34:49.614Z,18.58
2022-08-29T05:37:19.424Z,18.64
2022-08-29T05:39:48.991Z,18.66
2022-08-29T05:42:17.114Z,18.65
2022-08-29T05:44:43.981Z,18.65
2022-08-29T05:47:12.618Z,18.61
2022-08-29T05:49:40.958Z,18.54
2022-08-29T05:52:07.989Z,18.64
2022-08-29T05:54:37.469Z,18.67
2022-08-29T05:57:04.987Z,18.92
2022-08-29T05:59:31.456Z,18.98
2022-08-29T06:01:58.155Z,19.02
2022-08-29T06:04:24.637Z,19.09
2022-08-29T06:06:51.075Z,19.02
2022-08-29T06:09:17.894Z,19.14
2022-08-29T06:11:48.525Z,19.13
2022-08-29T06:14:16.817Z,19.20
2022-08-29T06:16:43.377Z,19.04
2022-08-29T06:19:10.182Z,19.12
2022-08-29T06:21:36.620Z,19.09
2022-08-29T06:24:04.282Z,19.08
2022-08-29T06:26:31.509Z,19.13
2022-08-29T06:28:58.088Z,19.26
2022-08-29T06:31:29.092Z,19.26
2022-08-29T06:33:59.146Z,19.31
2022-08-29T06:36:26.846Z,19.45
2022-08-29T06:38:56.850Z,19.53
2022-08-29T06:41:24.906Z,19.43
2022-08-29T06:43:52.094Z,19.53
2022-08-29T06:46:25.027Z,19.53
2022-08-29T06:48:52.349Z,19.70
2022-08-29T06:51:19.564Z,19.55
2022-08-29T06:53:47.732Z,19.73
2022-08-29T06:56:14.442Z,19.62
2022-08-29T06:58:41.842Z,19.75
2022-08-29T07:01:11.151Z,19.60
2022-08-29T07:03:38.034Z,19.78
2022-08-29T07:06:05.432Z,19.78
2022-08-29T07:08:32.723Z,19.75
2022-08-29T07:10:59.711Z,19.72
2022-08-29T07:13:26.570Z,19.78
2022-08-29T07:15:53.112Z,19.67
2022-08-29T07:18:20.484Z,19.80
2022-08-29T07:20:46.941Z,19.99
2022-08-29T07:23:13.385Z,19.96
2022-08-29T07:25:39.920Z,20.11
2022-08-29T07:28:06.871Z,20.25
2022-08-29T07:30:34.764Z,20.32
2022-08-29T07:33:01.300Z,20.36
2022-08-29T07:35:31.089Z,20.45
2022-08-29T07:38:01.370Z,20.51
2022-08-29T07:40:28.540Z,20.50
2022-08-29T07:42:55.139Z,20.51
2022-08-29T07:45:21.555Z,20.51
2022-08-29T07:47:50.942Z,20.63
2022-08-29T07:50:17.455Z,20.73
2022-08-29T07:52:44.419Z,20.82
2022-08-29T07:55:11.103Z,20.93
2022-08-29T07:57:39.782Z,21.05
2022-08-29T08:00:10.444Z,20.96
2022-08-29T08:02:37.018Z,21.00
2022-08-29T08:05:03.642Z,21.08
2022-08-29T08:07:35.004Z,20.97
2022-08-29T08:10:02.512Z,21.27
2022-08-29T08:12:29.307Z,21.35
2022-08-29T08:14:56.994Z,21.34
2022-08-29T08:17:23.887Z,21.57
2022-08-29T08:19:50.295Z,21.61
2022-08-29T08:22:16.958Z,21.81
2022-08-29T08:24:43.431Z,21.90
2022-08-29T08:27:10.116Z,21.82
2022-08-29T08:29:36.567Z,22.08
2022-08-29T08:32:03.444Z,22.17
2022-08-29T08:34:30.253Z,22.22
2022-08-29T08:36:56.781Z,22.42
2022-08-29T08:39:23.227Z,22.53
2022-08-29T08:41:57.328Z,22.74
2022-08-29T08:44:41.998Z,22.78
2022-08-29T08:47:11.234Z,22.69
2022-08-29T08:49:44.662Z,22.99
2022-08-29T08:52:20.725Z,23.10
2022-08-29T08:54:55.208Z,23.20
2022-08-29T08:57:22.162Z,23.21
2022-08-29T08:59:57.551Z,23.36
2022-08-29T09:03:00.045Z,23.40
2022-08-29T09:05:58.406Z,23.43
2022-08-29T09:08:57.794Z,23.54
2022-08-29T09:11:49.704Z,23.72
2022-08-29T09:14:34.827Z,24.00
2022-08-29T09:17:04.509Z,23.85
2022-08-29T09:19:31.228Z,23.90
2022-08-29T09:22:10.155Z,24.07
2022-08-29T09:24:44.594Z,23.91
2022-08-29T09:27:23.211Z,24.14
2022-08-29T09:29:57.226Z,24.13
2022-08-29T09:32:23.692Z,24.04
2022-08-29T09:35:07.807Z,24.02
2022-08-29T09:37:35.383Z,24.11
2022-08-29T09:40:07.555Z,24.12
2022-08-29T09:42:38.086Z,24.00
2022-08-29T09:45:18.013Z,24.07
2022-08-29T09:47:45.409Z,24.40
2022-08-29T09:50:25.115Z,24.23
2022-08-29T09:52:55.459Z,24.13
2022-08-29T09:55:29.131Z,24.11
2022-08-29T09:58:02.418Z,24.17
2022-08-29T10:00:33.953Z,24.03
2022-08-29T10:03:02.811Z,24.13
2022-08-29T10:05:45.977Z,24.19
2022-08-29T10:08:35.294Z,24.11
2022-08-29T10:11:06.516Z,24.02
2022-08-29T10:13:46.047Z,23.79
2022-08-29T10:16:27.897Z,24.03
2022-08-29T10:19:03.107Z,24.06
2022-08-29T10:21:58.917Z,24.23
2022-08-29T10:24:59.130Z,24.29
2022-08-29T10:27:40.760Z,24.34
2022-08-29T10:30:07.546Z,24.38
2022-08-29T10:33:14.414Z,24.48
2022-08-29T10:35:55.784Z,24.41
2022-08-29T10:38:40.141Z,24.44
2022-08-29T10:41:50.507Z,24.41
2022-08-29T10:44:41.406Z,24.35
2022-08-29T10:47:39.391Z,24.27
2022-08-29T10:50:43.778Z,24.42
2022-08-29T10:53:27.746Z,24.46
2022-08-29T10:56:05.870Z,24.56
2022-08-29T10:59:12.225Z,24.71
2022-08-29T11:01:47.952Z,24.71
2022-08-29T11:04:22.210Z,24.78
2022-08-29T11:06:48.643Z,24.84
2022-08-29T11:09:21.514Z,24.99
2022-08-29T11:12:17.488Z,25.15
2022-08-29T11:15:02.833Z,25.22
2022-08-29T11:17:34.764Z,25.31
2022-08-29T11:20:17.911Z,25.46
2022-08-29T11:23:05.351Z,25.70
2022-08-29T11:25:35.738Z,25.76
2022-08-29T11:28:08.379Z,25.96
2022-08-29T11:30:48.345Z,26.08
2022-08-29T11:33:39.868Z,26.16
2022-08-29T11:36:07.129Z,26.09
2022-08-29T11:38:45.668Z,26.04
2022-08-29T11:41:33.815Z,25.94
2022-08-29T11:44:33.418Z,25.96
2022-08-29T11:47:00.395Z,25.77
2022-08-29T11:49:37.057Z,25.72
2022-08-29T11:52:10.958Z,25.68
2022-08-29T11:54:38.947Z,25.53
2022-08-29T11:57:05.306Z,25.38
2022-08-29T11:59:44.593Z,25.30
2022-08-29T12:02:31.046Z,25.23
2022-08-29T12:05:03.444Z,25.22
2022-08-29T12:07:38.201Z,25.07
2022-08-29T12:10:26.420Z,25.18
2022-08-29T12:12:56.535Z,25.25
2022-08-29T12:15:32.324Z,25.28
2022-08-29T12:18:23.292Z,25.15
2022-08-29T12:20:52.213Z,25.08
2022-08-29T12:23:25.232Z,24.98
2022-08-29T12:26:15.855Z,24.90
2022-08-29T12:28:56.309Z,24.79
2022-08-29T12:32:02.212Z,24.61
2022-08-29T12:35:05.249Z,24.41
2022-08-29T12:38:09.033Z,24.46
2022-08-29T12:41:03.505Z,24.40
2022-08-29T12:43:34.987Z,24.27
2022-08-29T12:46:10.090Z,24.01
2022-08-29T12:48:57.620Z,24.18
2022-08-29T12:51:42.919Z,24.25
2022-08-29T12:54:12.301Z,24.17
2022-08-29T12:56:47.262Z,24.18
2022-08-29T12:59:19.582Z,24.15
2022-08-29T13:01:56.128Z,24.16
2022-08-29T13:04:31.942Z,24.13
2022-08-29T13:07:04.364Z,24.11
2022-08-29T13:09:43.098Z,24.12
2022-08-29T13:12:24.813Z,24.10
2022-08-29T13:15:08.243Z,24.01
2022-08-29T13:17:39.742Z,23.92
2022-08-29T13:20:40.358Z,23.97
2022-08-29T13:23:12.518Z,23.87
2022-08-29T13:26:06.459Z,23.87
2022-08-29T13:28:45.978Z,23.91
2022-08-29T13:31:15.157Z,23.93
2022-08-29T13:33:50.622Z,23.92
2022-08-29T13:36:41.146Z,24.01
2022-08-29T13:39:18.042Z,23.97
2022-08-29T13:41:53.859Z,23.94
2022-08-29T13:44:24.089Z,23.82
2022-08-29T13:46:52.707Z,23.77
2022-08-29T13:49:25.959Z,23.74
2022-08-29T13:51:52.510Z,23.63
2022-08-29T13:54:19.407Z,23.62
2022-08-29T13:56:58.160Z,23.69
2022-08-29T13:59:27.943Z,23.68
2022-08-29T14:02:12.939Z,23.73
2022-08-29T14:04:41.019Z,23.64
2022-08-29T14:07:12.048Z,23.67
2022-08-29T14:09:41.882Z,23.91
2022-08-29T14:12:08.955Z,24.09
2022-08-29T14:14:35.488Z,24.28
2022-08-29T14:17:02.040Z,24.31
2022-08-29T14:19:29.878Z,24.52
2022-08-29T14:22:00.317Z,24.73
2022-08-29T14:24:29.161Z,24.56
2022-08-29T14:27:01.999Z,24.98
2022-08-29T14:29:30.853Z,25.06
2022-08-29T14:31:58.194Z,25.21
2022-08-29T14:34:24.819Z,25.19
2022-08-29T14:36:57.003Z,25.13
2022-08-29T14:39:26.245Z,25.08
2022-08-29T14:41:52.923Z,24.96
2022-08-29T14:44:20.476Z,24.82
2022-08-29T14:46:47.537Z,24.72
2022-08-29T14:49:14.163Z,24.54
2022-08-29T14:51:41.972Z,24.76
2022-08-29T14:54:08.702Z,24.75
2022-08-29T14:56:48.204Z,24.74
2022-08-29T14:59:14.985Z,24.86
2022-08-29T15:01:41.855Z,24.93
2022-08-29T15:04:08.712Z,24.93
2022-08-29T15:06:35.305Z,24.65
2022-08-29T15:09:01.852Z,24.94
2022-08-29T15:11:28.394Z,24.84
2022-08-29T15:13:54.873Z,25.01
2022-08-29T15:16:21.488Z,24.92
2022-08-29T15:21:34.601Z,24.78
2022-08-29T15:24:01.155Z,24.56
2022-08-29T15:26:27.670Z,24.43
2022-08-29T15:28:54.865Z,24.52
2022-08-29T15:31:22.438Z,24.33
2022-08-29T15:33:49.722Z,24.31
2022-08-29T15:36:16.303Z,24.12
2022-08-29T15:38:43.086Z,24.17
2022-08-29T15:41:09.525Z,24.06
2022-08-29T15:43:36.056Z,23.92
2022-08-29T15:46:02.628Z,23.78
2022-08-29T15:48:29.174Z,23.57
2022-08-29T15:50:55.607Z,23.68
2022-08-29T15:53:22.244Z,23.53
2022-08-29T15:55:48.683Z,23.56
2022-08-29T15:58:15.240Z,23.39
2022-08-29T16:00:41.983Z,23.40
2022-08-29T16:03:08.663Z,23.32
2022-08-29T16:05:36.647Z,23.28
2022-08-29T16:08:03.356Z,22.89
2022-08-29T16:10:30.694Z,23.17
2022-08-29T16:12:57.647Z,23.19
2022-08-29T16:15:24.519Z,23.21
2022-08-29T16:17:51.437Z,23.33
2022-08-29T16:20:18.854Z,23.32
2022-08-29T16:22:45.313Z,23.24
2022-08-29T16:25:13.116Z,23.16
2022-08-29T16:27:40.061Z,23.41
2022-08-29T16:30:07.183Z,23.32
2022-08-29T16:32:33.862Z,23.55
2022-08-29T16:35:00.348Z,23.60
2022-08-29T16:37:27.282Z,23.59
2022-08-29T16:39:54.456Z,23.62
2022-08-29T16:42:21.705Z,23.60
2022-08-29T16:44:48.485Z,23.63
2022-08-29T16:47:15.262Z,23.59
2022-08-29T16:49:41.736Z,23.73
2022-08-29T16:52:08.414Z,23.73
2022-08-29T16:54:34.967Z,23.75
2022-08-29T16:57:01.461Z,23.72
2022-08-29T16:59:27.915Z,23.59
2022-08-29T17:01:55.224Z,23.64
2022-08-29T17:04:30.106Z,23.66
2022-08-29T17:06:57.185Z,23.64
2022-08-29T17:09:25.069Z,23.46
2022-08-29T17:11:53.775Z,23.64
2022-08-29T17:14:24.866Z,23.53
2022-08-29T17:16:53.068Z,23.25
2022-08-29T17:19:21.010Z,23.09
2022-08-29T17:21:48.233Z,22.87
2022-08-29T17:24:15.950Z,22.62
2022-08-29T17:26:45.231Z,22.46
2022-08-29T17:29:12.678Z,22.22
2022-08-29T17:31:39.256Z,22.03
2022-08-29T17:34:08.088Z,21.97
2022-08-29T17:36:36.757Z,22.01
2022-08-29T17:39:04.878Z,21.95
2022-08-29T17:41:31.450Z,21.86
2022-08-29T17:43:59.274Z,21.88
2022-08-29T17:46:25.822Z,21.73
2022-08-29T17:48:52.576Z,21.74
2022-08-29T17:51:19.046Z,21.70
2022-08-29T17:53:46.382Z,21.56
2022-08-29T17:56:19.835Z,21.29
2022-08-29T17:58:47.416Z,21.31
2022-08-29T18:01:16.420Z,21.19
2022-08-29T18:03:44.490Z,21.05
2022-08-29T18:06:12.359Z,20.89
2022-08-29T18:08:41.277Z,20.85
2022-08-29T18:11:11.920Z,20.57
2022-08-29T18:13:38.662Z,20.59
2022-08-29T18:16:05.183Z,20.49
2022-08-29T18:18:32.561Z,20.36
2022-08-29T18:20:59.117Z,20.21
2022-08-29T18:23:25.707Z,19.90
2022-08-29T18:25:52.163Z,19.95
2022-08-29T18:28:19.525Z,19.85
2022-08-29T18:30:46.030Z,19.56
2022-08-29T18:33:13.000Z,19.35
2022-08-29T18:35:39.487Z,19.63
2022-08-29T18:38:07.706Z,19.27
2022-08-29T18:40:39.315Z,19.42
2022-08-29T18:43:06.950Z,19.31
2022-08-29T18:45:34.622Z,19.20
2022-08-29T18:48:02.150Z,18.97
2022-08-29T18:50:34.567Z,19.00
2022-08-29T18:53:12.902Z,18.99
2022-08-29T18:55:50.495Z,18.76
2022-08-29T18:58:23.682Z,18.85
2022-08-29T19:00:51.073Z,18.73
2022-08-29T19:03:21.385Z,18.62
2022-08-29T19:05:49.388Z,18.84
2022-08-29T19:08:18.553Z,18.69
2022-08-29T19:10:47.318Z,18.56
2022-08-29T19:13:15.701Z,18.64
2022-08-29T19:15:42.461Z,18.58
2022-08-29T19:18:10.538Z,18.63
2022-08-29T19:20:55.587Z,18.41
2022-08-29T19:23:22.601Z,18.67
2022-08-29T19:25:49.943Z,18.58
2022-08-29T19:28:18.178Z,18.73
2022-08-29T19:30:45.042Z,18.69
2022-08-29T19:33:15.213Z,18.72
2022-08-29T19:35:41.780Z,18.67
2022-08-29T19:38:08.441Z,18.71
2022-08-29T19:43:27.720Z,18.60
2022-08-29T19:45:54.731Z,18.52
2022-08-29T19:48:22.156Z,18.46
2022-08-29T19:50:48.721Z,18.29
2022-08-29T19:53:26.614Z,18.31
2022-08-29T19:55:56.696Z,17.95
2022-08-29T19:58:31.875Z,18.15
2022-08-29T20:01:03.290Z,18.06
2022-08-29T20:03:30.569Z,17.88
2022-08-29T20:05:57.229Z,17.90
2022-08-29T20:08:23.901Z,17.80
2022-08-29T20:10:51.229Z,17.50
2022-08-29T20:13:18.504Z,17.66
2022-08-29T20:15:44.943Z,17.34
2022-08-29T20:18:11.565Z,17.50
2022-08-29T20:20:39.895Z,17.43
2022-08-29T20:23:07.229Z,17.35
2022-08-29T20:25:34.938Z,17.23
2022-08-29T20:28:02.160Z,17.20
2022-08-29T20:30:31.726Z,17.12
2022-08-29T20:32:58.174Z,17.00
2022-08-29T20:35:43.910Z,16.90
2022-08-29T20:38:10.887Z,16.91
2022-08-29T20:40:39.465Z,16.83
2022-08-29T20:43:06.917Z,16.73
2022-08-29T20:45:33.832Z,16.65
2022-08-29T20:48:01.736Z,16.69
2022-08-29T20:52:55.603Z,16.59
2022-08-29T20:55:22.935Z,16.67
2022-08-29T20:57:49.398Z,16.60
2022-08-29T21:00:16.230Z,16.65
2022-08-29T21:03:01.019Z,16.63
2022-08-29T21:05:42.263Z,16.59
2022-08-29T21:08:15.137Z,16.44
2022-08-29T21:10:43.572Z,16.49
2022-08-29T21:13:10.676Z,16.46
2022-08-29T21:15:38.992Z,16.41
2022-08-29T21:18:06.251Z,16.29
2022-08-29T21:20:36.302Z,16.37
2022-08-29T21:23:08.193Z,16.28
2022-08-29T21:25:35.530Z,16.35
2022-08-29T21:28:02.475Z,16.31
2022-08-29T21:30:33.843Z,16.33
2022-08-29T21:33:00.534Z,16.27
2022-08-29T21:35:26.972Z,16.27
2022-08-29T21:37:54.177Z,16.28
2022-08-29T21:40:25.765Z,16.26
2022-08-29T21:42:54.749Z,16.17
2022-08-29T21:45:22.718Z,16.25
2022-08-29T21:47:54.561Z,16.17
2022-08-29T21:50:22.800Z,16.06
2022-08-29T21:52:49.569Z,16.26
2022-08-29T21:55:18.175Z,16.42
2022-08-29T21:57:51.893Z,16.40
2022-08-29T22:00:27.347Z,16.57
2022-08-29T22:02:54.572Z,16.47
2022-08-29T22:05:21.396Z,16.63
2022-08-29T22:07:47.904Z,16.69
2022-08-29T22:10:20.187Z,16.81
2022-08-29T22:12:47.245Z,16.86
2022-08-29T22:15:33.189Z,16.78
2022-08-29T22:17:59.938Z,16.79
2022-08-29T22:20:27.246Z,16.75
2022-08-29T22:22:53.854Z,16.87
2022-08-29T22:25:21.039Z,16.96
2022-08-29T22:27:47.835Z,17.06
2022-08-29T22:30:15.585Z,17.08
2022-08-29T22:32:42.986Z,17.07
2022-08-29T22:35:19.535Z,16.89
2022-08-29T22:37:46.031Z,16.92
2022-08-29T22:40:16.541Z,16.99
2022-08-29T22:42:44.488Z,16.91
2022-08-29T22:45:13.707Z,16.86
2022-08-29T22:47:42.476Z,16.85
2022-08-29T22:50:13.575Z,16.80
2022-08-29T22:52:40.141Z,16.73
2022-08-29T22:55:08.740Z,16.64
2022-08-29T22:57:35.195Z,16.26
2022-08-29T23:00:04.040Z,16.32
2022-08-29T23:02:30.499Z,16.45
2022-08-29T23:04:57.021Z,16.37
2022-08-29T23:07:23.647Z,16.23
2022-08-29T23:09:50.689Z,16.26
2022-08-29T23:12:17.650Z,16.27
2022-08-29T23:14:48.777Z,16.39
2022-08-29T23:17:16.637Z,16.43
2022-08-29T23:19:43.792Z,16.43
2022-08-29T23:22:12.686Z,16.50
2022-08-29T23:24:41.342Z,16.40
2022-08-29T23:27:20.419Z,16.46
2022-08-29T23:29:50.412Z,16.63
2022-08-29T23:32:17.238Z,16.58
2022-08-29T23:34:44.016Z,16.66
2022-08-29T23:37:10.546Z,16.67
2022-08-29T23:39:36.995Z,16.63
2022-08-29T23:42:04.013Z,16.44
2022-08-29T23:44:30.528Z,16.56
2022-08-29T23:46:57.312Z,16.64
2022-08-29T23:49:23.965Z,16.63
2022-08-29T23:51:50.925Z,16.74
2022-08-29T23:54:18.272Z,16.41
2022-08-29T23:56:45.015Z,16.74
2022-08-29T23:59:31.447Z,16.57
